createdAt,value
2023-02-19T00:02:12.779Z,8.00
2023-02-19T00:04:40.258Z,8.00
2023-02-19T00:07:07.635Z,8.02
2023-02-19T00:09:34.583Z,7.99
2023-02-19T00:12:01.560Z,8.00
2023-02-19T00:14:28.518Z,8.00
2023-02-19T00:16:55.925Z,8.01
2023-02-19T00:19:23.459Z,8.05
2023-02-19T00:21:54.513Z,8.05
2023-02-19T00:24:22.536Z,8.05
2023-02-19T00:26:50.065Z,8.10
2023-02-19T00:29:20.198Z,8.07
2023-02-19T00:31:48.422Z,8.04
2023-02-19T00:34:15.934Z,8.10
2023-02-19T00:36:44.080Z,8.12
2023-02-19T00:39:15.332Z,8.08
2023-02-19T00:41:43.344Z,8.13
2023-02-19T00:44:11.665Z,8.10
2023-02-19T00:46:41.618Z,8.11
2023-02-19T00:49:17.046Z,8.17
2023-02-19T00:51:44.394Z,8.11
2023-02-19T00:54:12.896Z,8.10
2023-02-19T00:56:41.081Z,8.12
2023-02-19T00:59:08.829Z,8.12
2023-02-19T01:01:36.228Z,8.09
2023-02-19T01:04:06.429Z,8.12
2023-02-19T01:06:34.703Z,8.12
2023-02-19T01:09:03.656Z,8.16
2023-02-19T01:11:31.018Z,8.13
2023-02-19T01:13:59.590Z,8.12
2023-02-19T01:16:27.613Z,8.11
2023-02-19T01:18:55.127Z,8.12
2023-02-19T01:21:25.099Z,8.14
2023-02-19T01:23:53.607Z,8.05
2023-02-19T01:26:23.440Z,8.06
2023-02-19T01:28:50.865Z,8.05
2023-02-19T01:31:21.250Z,8.09
2023-02-19T01:33:59.492Z,8.19
2023-02-19T01:36:27.739Z,8.16
2023-02-19T01:38:55.867Z,8.10
2023-02-19T01:41:25.241Z,8.06
2023-02-19T01:44:15.846Z,8.11
2023-02-19T01:46:44.195Z,8.16
2023-02-19T01:49:34.191Z,8.13
2023-02-19T01:52:30.804Z,8.14
2023-02-19T01:54:58.840Z,8.18
2023-02-19T01:57:28.226Z,8.22
2023-02-19T02:00:04.388Z,8.19
2023-02-19T02:02:41.622Z,8.18
2023-02-19T02:05:21.957Z,8.17
2023-02-19T02:08:07.872Z,8.18
2023-02-19T02:10:35.311Z,8.19
2023-02-19T02:13:03.112Z,8.17
2023-02-19T02:15:49.953Z,8.20
2023-02-19T02:18:32.072Z,8.17
2023-02-19T02:21:27.103Z,8.17
2023-02-19T02:23:57.570Z,8.21
2023-02-19T02:26:26.854Z,8.17
2023-02-19T02:29:23.680Z,8.20
2023-02-19T02:32:27.925Z,8.20
2023-02-19T02:35:04.525Z,8.21
2023-02-19T02:37:35.946Z,8.19
2023-02-19T02:40:05.596Z,8.22
2023-02-19T02:42:34.861Z,8.23
2023-02-19T02:45:36.312Z,8.19
2023-02-19T02:48:18.117Z,8.19
2023-02-19T02:51:07.138Z,8.23
2023-02-19T02:54:22.694Z,8.19
2023-02-19T02:56:51.057Z,8.17
2023-02-19T02:59:25.941Z,8.21
2023-02-19T03:02:14.084Z,8.16
2023-02-19T03:05:14.391Z,8.19
2023-02-19T03:07:41.998Z,8.20
2023-02-19T03:10:14.722Z,8.17
2023-02-19T03:13:05.408Z,8.18
2023-02-19T03:16:00.026Z,8.10
2023-02-19T03:18:48.859Z,8.14
2023-02-19T03:21:20.937Z,8.15
2023-02-19T03:24:08.282Z,8.14
2023-02-19T03:26:37.181Z,8.12
2023-02-19T03:29:23.319Z,8.12
2023-02-19T03:31:57.892Z,8.12
2023-02-19T03:34:51.717Z,8.15
2023-02-19T03:37:37.578Z,8.11
2023-02-19T03:40:05.293Z,8.12
2023-02-19T03:42:32.619Z,8.17
2023-02-19T03:45:22.513Z,8.12
2023-02-19T03:48:35.024Z,8.11
2023-02-19T03:51:33.436Z,8.09
2023-02-19T03:54:29.268Z,8.13
2023-02-19T03:57:32.249Z,8.11
2023-02-19T04:00:36.728Z,8.03
2023-02-19T04:03:21.006Z,8.02
2023-02-19T04:05:53.067Z,8.05
2023-02-19T04:08:22.657Z,8.00
2023-02-19T04:11:00.091Z,7.99
2023-02-19T04:13:45.477Z,7.98
2023-02-19T04:16:19.909Z,7.95
2023-02-19T04:18:49.742Z,7.93
2023-02-19T04:21:17.360Z,7.88
2023-02-19T04:23:45.934Z,7.89
2023-02-19T04:26:14.561Z,7.88
2023-02-19T04:28:43.086Z,7.87
2023-02-19T04:31:11.041Z,7.84
2023-02-19T04:33:38.694Z,7.80
2023-02-19T04:36:07.109Z,7.82
2023-02-19T04:38:34.447Z,7.79
2023-02-19T04:41:01.812Z,7.76
2023-02-19T04:43:29.130Z,7.69
2023-02-19T04:46:01.323Z,7.69
2023-02-19T04:48:28.943Z,7.68
2023-02-19T04:50:56.376Z,7.65
2023-02-19T04:53:23.839Z,7.66
2023-02-19T04:55:53.347Z,7.60
2023-02-19T04:58:21.357Z,7.62
2023-02-19T05:00:52.850Z,7.57
2023-02-19T05:03:20.376Z,7.54
2023-02-19T05:05:47.866Z,7.56
2023-02-19T05:08:15.207Z,7.53
2023-02-19T05:10:42.654Z,7.52
2023-02-19T05:13:10.026Z,7.52
2023-02-19T05:15:37.672Z,7.49
2023-02-19T05:18:05.170Z,7.45
2023-02-19T05:20:32.588Z,7.45
2023-02-19T05:22:59.930Z,7.44
2023-02-19T05:25:27.288Z,7.43
2023-02-19T05:28:14.592Z,7.40
2023-02-19T05:30:41.954Z,7.41
2023-02-19T05:33:09.374Z,7.40
2023-02-19T05:35:41.910Z,7.42
2023-02-19T05:38:09.374Z,7.37
2023-02-19T05:40:37.201Z,7.39
2023-02-19T05:43:05.510Z,7.37
2023-02-19T05:45:33.159Z,7.37
2023-02-19T05:48:00.826Z,7.36
2023-02-19T05:50:28.682Z,7.35
2023-02-19T05:52:56.745Z,7.35
2023-02-19T05:55:24.156Z,7.37
2023-02-19T05:57:52.263Z,7.39
2023-02-19T06:00:21.312Z,7.37
2023-02-19T06:02:49.193Z,7.35
2023-02-19T06:05:16.592Z,7.37
2023-02-19T06:07:44.132Z,7.37
2023-02-19T06:10:12.269Z,7.38
2023-02-19T06:12:40.017Z,7.38
2023-02-19T06:15:07.608Z,7.37
2023-02-19T06:17:35.752Z,7.36
2023-02-19T06:20:03.655Z,7.36
2023-02-19T06:22:31.084Z,7.36
2023-02-19T06:24:58.578Z,7.36
2023-02-19T06:27:25.948Z,7.36
2023-02-19T06:29:53.247Z,7.41
2023-02-19T06:32:20.887Z,7.36
2023-02-19T06:34:48.487Z,7.41
2023-02-19T06:37:15.856Z,7.35
2023-02-19T06:39:43.852Z,7.36
2023-02-19T06:42:11.191Z,7.36
2023-02-19T06:44:38.596Z,7.40
2023-02-19T06:47:06.010Z,7.36
2023-02-19T06:49:33.405Z,7.41
2023-02-19T06:52:01.970Z,7.46
2023-02-19T06:54:29.385Z,7.41
2023-02-19T06:56:58.931Z,7.39
2023-02-19T06:59:26.465Z,7.41
2023-02-19T07:01:53.789Z,7.44
2023-02-19T07:04:21.169Z,7.46
2023-02-19T07:06:48.639Z,7.50
2023-02-19T07:09:16.005Z,7.50
2023-02-19T07:11:43.524Z,7.52
2023-02-19T07:14:15.514Z,7.55
2023-02-19T07:16:43.817Z,7.54
2023-02-19T07:19:12.060Z,7.59
2023-02-19T07:21:39.460Z,7.62
2023-02-19T07:24:07.012Z,7.64
2023-02-19T07:26:34.598Z,7.65
2023-02-19T07:29:02.075Z,7.69
2023-02-19T07:31:29.714Z,7.70
2023-02-19T07:33:57.213Z,7.72
2023-02-19T07:36:25.755Z,7.75
2023-02-19T07:39:01.484Z,7.74
2023-02-19T07:41:28.933Z,7.80
2023-02-19T07:43:58.566Z,7.80
2023-02-19T07:46:26.271Z,7.81
2023-02-19T07:48:53.589Z,7.81
2023-02-19T07:51:21.312Z,7.86
2023-02-19T07:53:52.402Z,7.89
2023-02-19T07:56:20.621Z,7.94
2023-02-19T07:58:48.102Z,8.01
2023-02-19T08:01:18.350Z,8.09
2023-02-19T08:03:46.239Z,8.15
2023-02-19T08:06:14.328Z,8.17
2023-02-19T08:08:41.737Z,8.24
2023-02-19T08:11:28.264Z,8.28
2023-02-19T08:13:55.681Z,8.34
2023-02-19T08:16:36.908Z,8.34
2023-02-19T08:19:08.426Z,8.41
2023-02-19T08:21:35.739Z,8.47
2023-02-19T08:24:03.143Z,8.55
2023-02-19T08:26:30.637Z,8.59
2023-02-19T08:28:59.013Z,8.65
2023-02-19T08:31:27.089Z,8.67
2023-02-19T08:33:54.642Z,8.73
2023-02-19T08:36:22.112Z,8.82
2023-02-19T08:38:49.480Z,8.83
2023-02-19T08:41:16.924Z,8.87
2023-02-19T08:43:44.486Z,8.86
2023-02-19T08:46:12.546Z,8.88
2023-02-19T08:48:40.206Z,8.84
2023-02-19T08:51:10.212Z,8.85
2023-02-19T08:53:38.706Z,8.86
2023-02-19T08:56:11.705Z,8.82
2023-02-19T08:58:39.270Z,8.81
2023-02-19T09:01:12.314Z,8.86
2023-02-19T09:03:40.160Z,8.89
2023-02-19T09:06:07.993Z,8.87
2023-02-19T09:08:35.466Z,8.94
2023-02-19T09:11:04.635Z,8.93
2023-02-19T09:13:32.081Z,8.90
2023-02-19T09:15:59.602Z,8.93
2023-02-19T09:18:27.449Z,8.97
2023-02-19T09:20:54.832Z,9.03
2023-02-19T09:23:22.420Z,9.05
2023-02-19T09:25:50.490Z,9.05
2023-02-19T09:28:17.971Z,9.09
2023-02-19T09:30:45.326Z,9.15
2023-02-19T09:33:12.764Z,9.21
2023-02-19T09:35:40.926Z,9.14
2023-02-19T09:38:10.443Z,9.14
2023-02-19T09:40:39.116Z,9.23
2023-02-19T09:43:15.477Z,9.21
2023-02-19T09:45:42.893Z,9.21
2023-02-19T09:48:10.791Z,9.19
2023-02-19T09:50:44.264Z,9.23
2023-02-19T09:53:25.681Z,9.26
2023-02-19T09:55:53.628Z,9.17
2023-02-19T09:58:27.300Z,9.27
2023-02-19T10:00:56.055Z,9.27
2023-02-19T10:03:31.908Z,9.39
2023-02-19T10:06:01.889Z,9.49
2023-02-19T10:08:32.897Z,9.46
2023-02-19T10:11:01.809Z,9.52
2023-02-19T10:13:44.542Z,9.41
2023-02-19T10:16:17.489Z,9.36
2023-02-19T10:18:45.902Z,9.38
2023-02-19T10:21:19.811Z,9.43
2023-02-19T10:23:49.614Z,9.49
2023-02-19T10:26:16.980Z,9.60
2023-02-19T10:28:44.297Z,9.63
2023-02-19T10:31:21.237Z,9.60
2023-02-19T10:33:54.165Z,9.55
2023-02-19T10:36:40.232Z,9.56
2023-02-19T10:39:42.226Z,9.53
2023-02-19T10:42:20.830Z,9.58
2023-02-19T10:45:01.867Z,9.60
2023-02-19T10:47:30.926Z,9.61
2023-02-19T10:49:59.836Z,9.70
2023-02-19T10:52:36.200Z,9.76
2023-02-19T10:55:28.332Z,9.83
2023-02-19T10:57:56.622Z,9.94
2023-02-19T11:00:30.378Z,10.02
2023-02-19T11:03:21.148Z,10.08
2023-02-19T11:06:04.204Z,10.18
2023-02-19T11:08:35.078Z,10.19
2023-02-19T11:11:02.695Z,10.31
2023-02-19T11:13:32.569Z,10.35
2023-02-19T11:16:00.825Z,10.33
2023-02-19T11:18:33.062Z,10.25
2023-02-19T11:21:05.651Z,10.18
2023-02-19T11:23:37.278Z,10.15
2023-02-19T11:26:13.997Z,10.25
2023-02-19T11:28:41.992Z,10.52
2023-02-19T11:31:32.035Z,10.58
2023-02-19T11:34:01.090Z,10.38
2023-02-19T11:36:34.165Z,10.30
2023-02-19T11:39:19.865Z,10.33
2023-02-19T11:42:05.650Z,10.24
2023-02-19T11:44:49.655Z,10.37
2023-02-19T11:47:42.488Z,10.47
2023-02-19T11:50:27.695Z,10.57
2023-02-19T11:53:09.527Z,10.66
2023-02-19T11:55:52.013Z,10.85
2023-02-19T11:58:34.690Z,11.01
2023-02-19T12:01:28.862Z,10.85
2023-02-19T12:04:20.262Z,10.75
2023-02-19T12:06:53.382Z,10.58
2023-02-19T12:09:20.669Z,10.47
2023-02-19T12:12:11.965Z,10.40
2023-02-19T12:14:42.255Z,10.41
2023-02-19T12:17:48.032Z,10.43
2023-02-19T12:20:36.328Z,10.63
2023-02-19T12:23:41.405Z,10.65
2023-02-19T12:26:41.718Z,10.67
2023-02-19T12:29:44.172Z,10.78
2023-02-19T12:32:40.826Z,10.71
2023-02-19T12:35:29.723Z,10.80
2023-02-19T12:38:10.117Z,10.91
2023-02-19T12:41:19.630Z,10.79
2023-02-19T12:43:53.611Z,10.63
2023-02-19T12:46:32.922Z,10.79
2023-02-19T12:49:27.466Z,11.19
2023-02-19T12:52:15.542Z,11.12
2023-02-19T12:54:45.099Z,11.01
2023-02-19T12:57:25.145Z,11.01
2023-02-19T13:00:23.323Z,11.13
2023-02-19T13:03:06.518Z,11.08
2023-02-19T13:06:03.652Z,10.79
2023-02-19T13:08:42.089Z,10.52
2023-02-19T13:11:39.236Z,10.27
2023-02-19T13:14:18.549Z,10.14
2023-02-19T13:16:50.771Z,10.05
2023-02-19T13:19:18.282Z,10.00
2023-02-19T13:22:09.019Z,9.93
2023-02-19T13:24:40.766Z,10.01
2023-02-19T13:27:39.165Z,10.21
2023-02-19T13:30:27.014Z,10.30
2023-02-19T13:33:18.844Z,10.32
2023-02-19T13:36:10.163Z,10.25
2023-02-19T13:38:45.772Z,10.26
2023-02-19T13:41:27.860Z,10.38
2023-02-19T13:44:03.944Z,10.36
2023-02-19T13:46:39.962Z,10.37
2023-02-19T13:49:40.494Z,10.41
2023-02-19T13:52:29.856Z,10.34
2023-02-19T13:55:41.337Z,10.46
2023-02-19T13:58:33.953Z,10.56
2023-02-19T14:01:07.413Z,10.70
2023-02-19T14:03:38.028Z,10.77
2023-02-19T14:06:07.655Z,10.86
2023-02-19T14:08:57.046Z,10.64
2023-02-19T14:11:42.959Z,10.49
2023-02-19T14:14:36.758Z,10.45
2023-02-19T14:17:05.911Z,10.30
2023-02-19T14:19:42.427Z,10.19
2023-02-19T14:22:50.141Z,10.22
2023-02-19T14:25:39.003Z,10.34
2023-02-19T14:28:15.816Z,10.35
2023-02-19T14:30:43.176Z,10.40
2023-02-19T14:33:11.690Z,10.47
2023-02-19T14:35:42.942Z,10.42
2023-02-19T14:38:32.402Z,10.49
2023-02-19T14:41:00.136Z,10.55
2023-02-19T14:43:28.574Z,10.40
2023-02-19T14:46:01.592Z,10.32
2023-02-19T14:48:30.998Z,10.34
2023-02-19T14:51:07.050Z,10.27
2023-02-19T14:53:39.126Z,10.24
2023-02-19T14:56:07.452Z,10.21
2023-02-19T14:58:36.911Z,10.28
2023-02-19T15:01:05.654Z,10.41
2023-02-19T15:03:37.021Z,10.33
2023-02-19T15:06:07.980Z,10.31
2023-02-19T15:08:48.428Z,10.09
2023-02-19T15:11:21.880Z,10.09
2023-02-19T15:13:56.142Z,10.05
2023-02-19T15:16:26.028Z,9.98
2023-02-19T15:18:54.354Z,9.94
2023-02-19T15:21:33.022Z,9.82
2023-02-19T15:24:03.152Z,9.84
2023-02-19T15:26:42.990Z,9.83
2023-02-19T15:29:15.751Z,9.82
2023-02-19T15:31:51.925Z,9.77
2023-02-19T15:34:31.281Z,9.73
2023-02-19T15:37:05.251Z,9.66
2023-02-19T15:39:41.892Z,9.58
2023-02-19T15:42:15.026Z,9.57
2023-02-19T15:45:16.956Z,9.52
2023-02-19T15:47:53.323Z,9.58
2023-02-19T15:50:30.404Z,9.55
2023-02-19T15:53:12.708Z,9.57
2023-02-19T15:56:07.332Z,9.51
2023-02-19T15:58:37.377Z,9.50
2023-02-19T16:01:08.496Z,9.49
2023-02-19T16:03:36.197Z,9.45
2023-02-19T16:06:15.884Z,9.46
2023-02-19T16:09:04.653Z,9.39
2023-02-19T16:11:40.242Z,9.28
2023-02-19T16:14:30.100Z,9.29
2023-02-19T16:17:11.478Z,9.23
2023-02-19T16:19:58.695Z,9.24
2023-02-19T16:22:29.989Z,9.20
2023-02-19T16:25:03.284Z,9.16
2023-02-19T16:27:37.237Z,9.17
2023-02-19T16:30:09.942Z,9.16
2023-02-19T16:32:37.392Z,9.14
2023-02-19T16:35:05.919Z,9.06
2023-02-19T16:37:44.131Z,9.02
2023-02-19T16:40:31.347Z,9.02
2023-02-19T16:43:13.614Z,9.07
2023-02-19T16:45:44.713Z,8.98
2023-02-19T16:48:12.633Z,8.99
2023-02-19T16:50:43.971Z,8.94
2023-02-19T16:53:25.229Z,9.00
2023-02-19T16:55:53.067Z,8.84
2023-02-19T16:58:21.322Z,8.92
2023-02-19T17:00:48.758Z,8.83
2023-02-19T17:03:20.655Z,8.81
2023-02-19T17:05:48.388Z,8.88
2023-02-19T17:08:37.065Z,8.84
2023-02-19T17:11:07.474Z,8.70
2023-02-19T17:13:34.811Z,8.77
2023-02-19T17:16:02.333Z,8.81
2023-02-19T17:18:29.970Z,8.79
2023-02-19T17:21:05.803Z,8.74
2023-02-19T17:23:33.092Z,8.68
2023-02-19T17:26:00.423Z,8.65
2023-02-19T17:28:27.764Z,8.61
2023-02-19T17:30:55.334Z,8.65
2023-02-19T17:33:22.749Z,8.62
2023-02-19T17:35:50.140Z,8.62
2023-02-19T17:38:17.517Z,8.60
2023-02-19T17:40:45.274Z,8.62
2023-02-19T17:43:12.614Z,8.62
2023-02-19T17:45:40.056Z,8.63
2023-02-19T17:48:08.958Z,8.64
2023-02-19T17:50:36.265Z,8.61
2023-02-19T17:53:03.579Z,8.57
2023-02-19T17:55:30.955Z,8.57
2023-02-19T17:57:58.246Z,8.55
2023-02-19T18:00:31.682Z,8.56
2023-02-19T18:02:59.259Z,8.62
2023-02-19T18:05:26.623Z,8.58
2023-02-19T18:07:53.950Z,8.61
2023-02-19T18:10:23.480Z,8.57
2023-02-19T18:12:50.863Z,8.52
2023-02-19T18:15:20.861Z,8.50
2023-02-19T18:17:48.459Z,8.56
2023-02-19T18:20:18.304Z,8.49
2023-02-19T18:22:45.600Z,8.51
2023-02-19T18:25:13.194Z,8.63
2023-02-19T18:27:40.549Z,8.64
2023-02-19T18:30:09.333Z,8.71
2023-02-19T18:32:37.083Z,8.74
2023-02-19T18:35:05.447Z,8.72
2023-02-19T18:37:33.862Z,8.74
2023-02-19T18:40:01.697Z,8.64
2023-02-19T18:42:29.490Z,8.74
2023-02-19T18:44:57.180Z,8.74
2023-02-19T18:47:25.902Z,8.83
2023-02-19T18:49:55.249Z,8.72
2023-02-19T18:52:24.832Z,8.75
2023-02-19T18:54:54.965Z,8.62
2023-02-19T18:57:23.832Z,8.58
2023-02-19T18:59:51.334Z,8.59
2023-02-19T19:02:18.971Z,8.55
2023-02-19T19:04:51.385Z,8.52
2023-02-19T19:07:19.543Z,8.58
2023-02-19T19:09:47.205Z,8.49
2023-02-19T19:12:15.407Z,8.54
2023-02-19T19:14:43.151Z,8.53
2023-02-19T19:17:10.617Z,8.59
2023-02-19T19:19:38.159Z,8.73
2023-02-19T19:22:05.952Z,8.62
2023-02-19T19:24:33.306Z,8.64
2023-02-19T19:27:00.710Z,8.62
2023-02-19T19:29:28.644Z,8.64
2023-02-19T19:31:56.047Z,8.59
2023-02-19T19:34:23.456Z,8.59
2023-02-19T19:36:50.798Z,8.59
2023-02-19T19:39:19.311Z,8.60
2023-02-19T19:41:46.699Z,8.56
2023-02-19T19:44:14.243Z,8.74
2023-02-19T19:46:48.644Z,8.68
2023-02-19T19:49:20.226Z,8.50
2023-02-19T19:51:48.236Z,8.45
2023-02-19T19:54:15.942Z,8.48
2023-02-19T19:56:45.111Z,8.44
2023-02-19T19:59:14.374Z,8.31
2023-02-19T20:01:51.916Z,8.31
2023-02-19T20:04:21.909Z,8.30
2023-02-19T20:06:49.782Z,8.21
2023-02-19T20:09:18.211Z,8.20
2023-02-19T20:11:50.275Z,8.20
2023-02-19T20:14:19.387Z,8.24
2023-02-19T20:16:47.675Z,8.26
2023-02-19T20:19:16.315Z,8.21
2023-02-19T20:21:48.111Z,8.19
2023-02-19T20:24:17.726Z,8.18
2023-02-19T20:26:45.400Z,8.14
2023-02-19T20:29:13.071Z,8.18
2023-02-19T20:31:40.750Z,8.20
2023-02-19T20:34:08.232Z,8.26
2023-02-19T20:36:46.297Z,8.26
2023-02-19T20:39:14.832Z,8.25
2023-02-19T20:41:46.462Z,8.23
2023-02-19T20:44:14.593Z,8.05
2023-02-19T20:46:47.354Z,7.93
2023-02-19T20:49:16.010Z,7.85
2023-02-19T20:51:58.472Z,7.86
2023-02-19T20:54:28.249Z,7.80
2023-02-19T20:56:57.532Z,7.72
2023-02-19T20:59:30.402Z,7.64
2023-02-19T21:01:58.935Z,7.68
2023-02-19T21:04:26.842Z,7.59
2023-02-19T21:06:54.265Z,7.66
2023-02-19T21:09:24.598Z,7.67
2023-02-19T21:11:53.234Z,7.60
2023-02-19T21:14:20.704Z,7.58
2023-02-19T21:16:48.120Z,7.59
2023-02-19T21:19:15.671Z,7.62
2023-02-19T21:21:43.112Z,7.60
2023-02-19T21:24:10.788Z,7.68
2023-02-19T21:26:39.967Z,7.65
2023-02-19T21:29:10.719Z,7.68
2023-02-19T21:31:40.729Z,7.81
2023-02-19T21:34:09.834Z,7.75
2023-02-19T21:36:37.156Z,7.72
2023-02-19T21:39:06.456Z,7.67
2023-02-19T21:41:34.228Z,7.76
2023-02-19T21:44:03.527Z,7.87
2023-02-19T21:46:32.824Z,7.84
2023-02-19T21:49:00.538Z,7.79
2023-02-19T21:51:33.697Z,7.80
2023-02-19T21:54:01.427Z,7.92
2023-02-19T21:56:31.923Z,7.93
2023-02-19T21:58:59.850Z,7.86
2023-02-19T22:01:30.056Z,7.85
2023-02-19T22:03:57.482Z,7.83
2023-02-19T22:06:28.904Z,7.82
2023-02-19T22:08:56.975Z,7.84
2023-02-19T22:11:24.447Z,7.82
2023-02-19T22:13:52.245Z,7.91
2023-02-19T22:16:20.324Z,7.85
2023-02-19T22:18:52.993Z,7.88
2023-02-19T22:21:21.938Z,7.93
2023-02-19T22:23:51.052Z,7.94
2023-02-19T22:26:23.679Z,7.99
2023-02-19T22:28:51.472Z,7.98
2023-02-19T22:31:21.374Z,8.00
2023-02-19T22:33:48.914Z,7.91
2023-02-19T22:36:20.815Z,7.90
2023-02-19T22:38:49.057Z,7.99
2023-02-19T22:41:17.906Z,7.94
2023-02-19T22:43:45.747Z,7.96
2023-02-19T22:46:17.143Z,7.94
2023-02-19T22:48:44.604Z,7.90
2023-02-19T22:51:13.616Z,7.92
2023-02-19T22:53:51.683Z,7.99
2023-02-19T22:56:20.931Z,7.96
2023-02-19T22:58:48.331Z,7.84
2023-02-19T23:01:15.987Z,7.81
2023-02-19T23:03:47.506Z,7.78
2023-02-19T23:06:15.706Z,7.86
2023-02-19T23:08:43.501Z,7.82
2023-02-19T23:11:12.021Z,7.79
2023-02-19T23:13:42.429Z,7.83
2023-02-19T23:16:09.950Z,7.74
2023-02-19T23:18:37.413Z,7.79
2023-02-19T23:21:04.876Z,7.90
2023-02-19T23:23:32.255Z,7.88
2023-02-19T23:25:59.589Z,7.79
2023-02-19T23:28:26.970Z,7.86
2023-02-19T23:30:54.421Z,7.86
2023-02-19T23:33:21.843Z,7.74
2023-02-19T23:35:49.185Z,7.72
2023-02-19T23:38:16.578Z,7.64
2023-02-19T23:40:45.295Z,7.66
2023-02-19T23:43:12.732Z,7.75
2023-02-19T23:45:40.287Z,7.67
2023-02-19T23:48:07.708Z,7.72
2023-02-19T23:50:35.067Z,7.74
2023-02-19T23:53:02.646Z,7.65
2023-02-19T23:55:30.136Z,7.60
2023-02-19T23:57:57.462Z,7.60
